Terminal Aerodrome Forecast
Issued by NWS North Platte, NE

Home | Current Version | Previous Version | Graphics & Text | Print | Product List | Glossary On
Versions: 1 2 3 4 5 6 7 8 9 10 11 12 13 14 15 16 17 18
546
FTUS43 KLBF 222335
TAFVTN
TAF
KVTN 222335Z 2300/2324 04006KT P6SM OVC009
     FM230900 08009KT 3SM BR OVC009
     FM231200 11008KT 4SM BR OVC009
     FM231500 14013G19KT P6SM SCT020 BKN090=

USA.gov is the U.S. government's official web portal to all federal, state and local government web resources and services.